Huvudsida
METAR-TAF:

METAR-TAF

Flygplatser :

Skaraborgs flygflottilj

Såtenäs, Sverige

latitud: 58-26N, longitud: 012-42E, höjd: 54 m

Aktuellt väderrapport

Denna rapport gjordes för 35 minuter sedan, klockan 03:20 UTC
Vind 10 kt från sydväst
Temperatur 3°C
Fuktighet 100%
Tryck 998 hPa
Sikt 10 km eller mer

METAR: ESIB 190320Z AUTO 23010KT 9999 SCT014/// BKN230/// 03/03 Q0998

Tid: 04:55 (03:55 UTC)

Väderprognos

Denna rapport gjordes för 16 timmar och 55 minuter sedan, klockan 11:00 UTC
Prognos gäller från 18 kl. 12 UTC till 18 kl. 16 UTC
Vind 20 kt från sydväst i byarna ända upp till 35 kt
Sikt 10 km eller mer
Spridda moln på en höjd av 2000 ft
Sannolikhet 30%
från 18 kl. 12 UTC till 18 kl. 14 UTC
Sikt: 5000 m
Brutna moln på en höjd av 1400 ft
Brutna moln på en höjd av 2000 ft, Högtornande cumulus.
lätta regnskurar

TAF: ESIB 181100Z 1812/1816 23020G35KT 9999 SCT020 PROB30 1812/1814 5000 -SHRA BKN014 BKN020TCU RMK MIL

Aktuella väderrapporter och prognoser från 4000 flygplatser (METAR- och TAF-rapporter).

De tillgängliga stationerna syns som gula och röda prickar på kartan.

För musen över prickarna för att se namnen på stationerna.

Klicka sedan för att få väderrapporter och prognoser.

För att ändra kartan: Klicka på de gröna knapparna med ett svart kors på för att zooma in; den gröna knappen med ett streck på för att zooma ut; eller på de gröna pilarna för angränsande kartor.


METAR-TAF: